sensor_id;sensor_type;location;lat;lon;timestamp;temperature;humidity
1377;DHT22;682;52.502;13.488;2023-03-08T00:00:22;1.80;1.00
1377;DHT22;682;52.502;13.488;2023-03-08T00:02:49;1.70;1.00
1377;DHT22;682;52.502;13.488;2023-03-08T00:05:18;1.70;1.00
1377;DHT22;682;52.502;13.488;2023-03-08T00:07:45;1.70;1.00
1377;DHT22;682;52.502;13.488;2023-03-08T00:10:13;1.60;1.00
1377;DHT22;682;52.502;13.488;2023-03-08T00:12:40;1.50;1.00
1377;DHT22;682;52.502;13.488;2023-03-08T00:15:07;1.50;1.00
1377;DHT22;682;52.502;13.488;2023-03-08T00:17:35;1.50;1.00
1377;DHT22;682;52.502;13.488;2023-03-08T00:20:03;1.50;1.00
1377;DHT22;682;52.502;13.488;2023-03-08T00:22:34;1.40;1.00
1377;DHT22;682;52.502;13.488;2023-03-08T00:25:02;1.40;1.00
1377;DHT22;682;52.502;13.488;2023-03-08T00:27:30;1.40;1.00
1377;DHT22;682;52.502;13.488;2023-03-08T00:29:57;1.30;1.00
1377;DHT22;682;52.502;13.488;2023-03-08T00:32:25;1.30;1.00
1377;DHT22;682;52.502;13.488;2023-03-08T00:34:52;1.30;1.00
1377;DHT22;682;52.502;13.488;2023-03-08T00:37:19;1.30;1.00
1377;DHT22;682;52.502;13.488;2023-03-08T00:39:49;1.30;1.00
1377;DHT22;682;52.502;13.488;2023-03-08T00:42:17;1.30;1.00
1377;DHT22;682;52.502;13.488;2023-03-08T00:44:46;1.20;1.00
1377;DHT22;682;52.502;13.488;2023-03-08T00:47:13;1.20;1.00
1377;DHT22;682;52.502;13.488;2023-03-08T00:49:40;1.20;1.00
1377;DHT22;682;52.502;13.488;2023-03-08T00:52:07;1.20;1.00
1377;DHT22;682;52.502;13.488;2023-03-08T00:54:34;1.20;1.00
1377;DHT22;682;52.502;13.488;2023-03-08T00:57:01;1.20;1.00
1377;DHT22;682;52.502;13.488;2023-03-08T00:59:28;1.10;1.00
1377;DHT22;682;52.502;13.488;2023-03-08T01:01:57;1.10;1.00
1377;DHT22;682;52.502;13.488;2023-03-08T01:04:24;1.10;1.00
1377;DHT22;682;52.502;13.488;2023-03-08T01:06:51;1.10;1.00
1377;DHT22;682;52.502;13.488;2023-03-08T01:09:18;1.10;1.00
1377;DHT22;682;52.502;13.488;2023-03-08T01:11:44;1.10;1.00
1377;DHT22;682;52.502;13.488;2023-03-08T01:14:11;1.10;1.00
1377;DHT22;682;52.502;13.488;2023-03-08T01:16:40;1.10;1.00
1377;DHT22;682;52.502;13.488;2023-03-08T01:19:09;1.10;1.00
1377;DHT22;682;52.502;13.488;2023-03-08T01:21:36;1.10;1.00
1377;DHT22;682;52.502;13.488;2023-03-08T01:24:04;1.00;1.00
1377;DHT22;682;52.502;13.488;2023-03-08T01:26:31;1.00;1.00
1377;DHT22;682;52.502;13.488;2023-03-08T01:28:58;1.00;1.00
1377;DHT22;682;52.502;13.488;2023-03-08T01:31:27;1.00;1.00
1377;DHT22;682;52.502;13.488;2023-03-08T01:33:55;0.90;1.00
1377;DHT22;682;52.502;13.488;2023-03-08T01:36:27;1.00;1.00
1377;DHT22;682;52.502;13.488;2023-03-08T01:38:55;0.90;1.00
1377;DHT22;682;52.502;13.488;2023-03-08T01:41:24;0.90;1.00
1377;DHT22;682;52.502;13.488;2023-03-08T01:43:52;0.90;1.00
1377;DHT22;682;52.502;13.488;2023-03-08T01:46:23;0.90;1.00
1377;DHT22;682;52.502;13.488;2023-03-08T01:48:55;0.90;1.00
1377;DHT22;682;52.502;13.488;2023-03-08T01:51:29;0.80;1.00
1377;DHT22;682;52.502;13.488;2023-03-08T01:53:59;0.90;1.00
1377;DHT22;682;52.502;13.488;2023-03-08T01:56:27;0.90;1.00
1377;DHT22;682;52.502;13.488;2023-03-08T01:58:54;0.80;1.00
1377;DHT22;682;52.502;13.488;2023-03-08T02:01:23;0.80;1.00
1377;DHT22;682;52.502;13.488;2023-03-08T02:03:50;0.80;1.00
1377;DHT22;682;52.502;13.488;2023-03-08T02:06:18;0.80;1.00
1377;DHT22;682;52.502;13.488;2023-03-08T02:08:47;0.80;1.00
1377;DHT22;682;52.502;13.488;2023-03-08T02:11:17;0.70;1.00
1377;DHT22;682;52.502;13.488;2023-03-08T02:13:46;0.80;1.00
1377;DHT22;682;52.502;13.488;2023-03-08T02:16:15;0.80;1.00
1377;DHT22;682;52.502;13.488;2023-03-08T02:18:51;0.80;1.00
1377;DHT22;682;52.502;13.488;2023-03-08T02:21:19;0.80;1.00
1377;DHT22;682;52.502;13.488;2023-03-08T02:23:50;0.90;1.00
1377;DHT22;682;52.502;13.488;2023-03-08T02:26:17;0.90;1.00
1377;DHT22;682;52.502;13.488;2023-03-08T02:28:44;0.90;1.00
1377;DHT22;682;52.502;13.488;2023-03-08T02:31:11;0.80;1.00
1377;DHT22;682;52.502;13.488;2023-03-08T02:33:39;0.80;1.00
1377;DHT22;682;52.502;13.488;2023-03-08T02:36:07;0.80;1.00
1377;DHT22;682;52.502;13.488;2023-03-08T02:38:34;0.80;1.00
1377;DHT22;682;52.502;13.488;2023-03-08T02:41:02;0.80;1.00
1377;DHT22;682;52.502;13.488;2023-03-08T02:43:29;0.70;1.00
1377;DHT22;682;52.502;13.488;2023-03-08T02:45:56;0.70;1.00
1377;DHT22;682;52.502;13.488;2023-03-08T02:48:23;0.70;1.00
1377;DHT22;682;52.502;13.488;2023-03-08T02:50:50;0.70;1.00
1377;DHT22;682;52.502;13.488;2023-03-08T02:53:17;0.70;1.00
1377;DHT22;682;52.502;13.488;2023-03-08T02:55:44;0.70;1.00
1377;DHT22;682;52.502;13.488;2023-03-08T02:58:12;0.70;1.00
1377;DHT22;682;52.502;13.488;2023-03-08T03:00:39;0.70;1.00
1377;DHT22;682;52.502;13.488;2023-03-08T03:03:06;0.70;1.00
1377;DHT22;682;52.502;13.488;2023-03-08T03:05:34;0.70;1.00
1377;DHT22;682;52.502;13.488;2023-03-08T03:08:00;0.70;1.00
1377;DHT22;682;52.502;13.488;2023-03-08T03:10:27;0.70;1.00
1377;DHT22;682;52.502;13.488;2023-03-08T03:12:54;0.70;1.00
1377;DHT22;682;52.502;13.488;2023-03-08T03:15:22;0.70;1.00
1377;DHT22;682;52.502;13.488;2023-03-08T03:17:50;0.80;1.00
1377;DHT22;682;52.502;13.488;2023-03-08T03:20:17;0.80;1.00
1377;DHT22;682;52.502;13.488;2023-03-08T03:22:44;0.80;1.00
1377;DHT22;682;52.502;13.488;2023-03-08T03:25:11;0.80;1.00
1377;DHT22;682;52.502;13.488;2023-03-08T03:27:38;0.90;1.00
1377;DHT22;682;52.502;13.488;2023-03-08T03:30:08;0.90;1.00
1377;DHT22;682;52.502;13.488;2023-03-08T03:32:37;0.90;1.00
1377;DHT22;682;52.502;13.488;2023-03-08T03:35:05;0.90;1.00
1377;DHT22;682;52.502;13.488;2023-03-08T03:37:33;0.80;1.00
1377;DHT22;682;52.502;13.488;2023-03-08T03:40:01;0.80;1.00
1377;DHT22;682;52.502;13.488;2023-03-08T03:42:28;0.80;1.00
1377;DHT22;682;52.502;13.488;2023-03-08T03:44:56;0.80;1.00
1377;DHT22;682;52.502;13.488;2023-03-08T03:47:23;0.90;1.00
1377;DHT22;682;52.502;13.488;2023-03-08T03:49:51;0.90;1.00
1377;DHT22;682;52.502;13.488;2023-03-08T03:52:18;0.90;1.00
1377;DHT22;682;52.502;13.488;2023-03-08T03:54:45;1.00;1.00
1377;DHT22;682;52.502;13.488;2023-03-08T03:57:12;1.00;1.00
1377;DHT22;682;52.502;13.488;2023-03-08T03:59:38;1.00;1.00
1377;DHT22;682;52.502;13.488;2023-03-08T04:02:05;1.10;1.00
1377;DHT22;682;52.502;13.488;2023-03-08T04:04:32;1.10;1.00
1377;DHT22;682;52.502;13.488;2023-03-08T04:07:00;1.10;1.00
1377;DHT22;682;52.502;13.488;2023-03-08T04:09:27;1.10;1.00
1377;DHT22;682;52.502;13.488;2023-03-08T04:11:54;1.10;1.00
1377;DHT22;682;52.502;13.488;2023-03-08T04:14:21;1.10;1.00
1377;DHT22;682;52.502;13.488;2023-03-08T04:16:48;1.10;1.00
1377;DHT22;682;52.502;13.488;2023-03-08T04:19:15;1.20;1.00
1377;DHT22;682;52.502;13.488;2023-03-08T04:21:42;1.10;1.00
1377;DHT22;682;52.502;13.488;2023-03-08T04:24:10;1.20;1.00
1377;DHT22;682;52.502;13.488;2023-03-08T04:26:37;1.20;1.00
1377;DHT22;682;52.502;13.488;2023-03-08T04:29:04;1.20;1.00
1377;DHT22;682;52.502;13.488;2023-03-08T04:31:32;1.10;1.00
1377;DHT22;682;52.502;13.488;2023-03-08T04:34:03;1.10;1.00
1377;DHT22;682;52.502;13.488;2023-03-08T04:36:30;1.10;1.00
1377;DHT22;682;52.502;13.488;2023-03-08T04:38:57;1.10;1.00
1377;DHT22;682;52.502;13.488;2023-03-08T04:41:26;1.20;1.00
1377;DHT22;682;52.502;13.488;2023-03-08T04:43:54;1.20;1.00
1377;DHT22;682;52.502;13.488;2023-03-08T04:46:23;1.20;1.00
1377;DHT22;682;52.502;13.488;2023-03-08T04:48:51;1.30;1.00
1377;DHT22;682;52.502;13.488;2023-03-08T04:51:21;1.30;1.00
1377;DHT22;682;52.502;13.488;2023-03-08T04:53:48;1.30;1.00
1377;DHT22;682;52.502;13.488;2023-03-08T04:56:16;1.20;1.00
1377;DHT22;682;52.502;13.488;2023-03-08T04:58:45;1.10;1.00
1377;DHT22;682;52.502;13.488;2023-03-08T05:01:14;1.00;1.00
1377;DHT22;682;52.502;13.488;2023-03-08T05:03:42;0.90;1.00
1377;DHT22;682;52.502;13.488;2023-03-08T05:06:10;0.80;1.00
1377;DHT22;682;52.502;13.488;2023-03-08T05:08:38;0.80;1.00
1377;DHT22;682;52.502;13.488;2023-03-08T05:11:05;0.70;1.00
1377;DHT22;682;52.502;13.488;2023-03-08T05:13:34;0.70;1.00
1377;DHT22;682;52.502;13.488;2023-03-08T05:16:04;0.70;1.00
1377;DHT22;682;52.502;13.488;2023-03-08T05:18:31;0.70;1.00
1377;DHT22;682;52.502;13.488;2023-03-08T05:21:02;0.60;1.00
1377;DHT22;682;52.502;13.488;2023-03-08T05:23:31;0.60;1.00
1377;DHT22;682;52.502;13.488;2023-03-08T05:26:00;0.60;1.00
1377;DHT22;682;52.502;13.488;2023-03-08T05:28:29;0.60;1.00
1377;DHT22;682;52.502;13.488;2023-03-08T05:31:03;0.70;1.00
1377;DHT22;682;52.502;13.488;2023-03-08T05:33:30;0.70;1.00
1377;DHT22;682;52.502;13.488;2023-03-08T05:35:58;0.70;1.00
1377;DHT22;682;52.502;13.488;2023-03-08T05:38:25;0.80;1.00
1377;DHT22;682;52.502;13.488;2023-03-08T05:40:52;0.90;1.00
1377;DHT22;682;52.502;13.488;2023-03-08T05:43:19;0.90;1.00
1377;DHT22;682;52.502;13.488;2023-03-08T05:45:54;0.90;1.00
1377;DHT22;682;52.502;13.488;2023-03-08T05:48:23;0.90;1.00
1377;DHT22;682;52.502;13.488;2023-03-08T05:50:51;0.80;1.00
1377;DHT22;682;52.502;13.488;2023-03-08T05:53:18;0.90;1.00
1377;DHT22;682;52.502;13.488;2023-03-08T05:55:45;0.80;1.00
1377;DHT22;682;52.502;13.488;2023-03-08T05:58:12;0.80;1.00
1377;DHT22;682;52.502;13.488;2023-03-08T06:00:39;0.70;1.00
1377;DHT22;682;52.502;13.488;2023-03-08T06:03:07;0.80;1.00
1377;DHT22;682;52.502;13.488;2023-03-08T06:05:37;0.70;1.00
1377;DHT22;682;52.502;13.488;2023-03-08T06:08:05;0.70;1.00
1377;DHT22;682;52.502;13.488;2023-03-08T06:10:32;0.60;1.00
1377;DHT22;682;52.502;13.488;2023-03-08T06:12:59;0.60;1.00
1377;DHT22;682;52.502;13.488;2023-03-08T06:15:28;0.70;1.00
1377;DHT22;682;52.502;13.488;2023-03-08T06:17:55;0.70;1.00
1377;DHT22;682;52.502;13.488;2023-03-08T06:20:22;0.70;1.00
1377;DHT22;682;52.502;13.488;2023-03-08T06:22:50;0.80;1.00
1377;DHT22;682;52.502;13.488;2023-03-08T06:25:17;0.90;1.00
1377;DHT22;682;52.502;13.488;2023-03-08T06:27:47;1.00;1.00
1377;DHT22;682;52.502;13.488;2023-03-08T06:30:14;1.10;1.00
1377;DHT22;682;52.502;13.488;2023-03-08T06:32:41;1.10;1.00
1377;DHT22;682;52.502;13.488;2023-03-08T06:35:09;1.00;1.00
1377;DHT22;682;52.502;13.488;2023-03-08T06:37:36;0.90;1.00
1377;DHT22;682;52.502;13.488;2023-03-08T06:40:05;0.90;1.00
1377;DHT22;682;52.502;13.488;2023-03-08T06:42:33;1.00;1.00
1377;DHT22;682;52.502;13.488;2023-03-08T06:45:00;1.10;1.00
1377;DHT22;682;52.502;13.488;2023-03-08T06:47:28;1.10;1.00
1377;DHT22;682;52.502;13.488;2023-03-08T06:49:55;1.10;1.00
1377;DHT22;682;52.502;13.488;2023-03-08T06:52:22;1.20;1.00
1377;DHT22;682;52.502;13.488;2023-03-08T06:54:50;1.30;1.00
1377;DHT22;682;52.502;13.488;2023-03-08T06:57:18;1.40;1.00
1377;DHT22;682;52.502;13.488;2023-03-08T06:59:45;1.40;1.00
1377;DHT22;682;52.502;13.488;2023-03-08T07:02:12;1.40;1.00
1377;DHT22;682;52.502;13.488;2023-03-08T07:04:39;1.40;1.00
1377;DHT22;682;52.502;13.488;2023-03-08T07:07:06;1.40;1.00
1377;DHT22;682;52.502;13.488;2023-03-08T07:09:33;1.50;1.00
1377;DHT22;682;52.502;13.488;2023-03-08T07:12:00;1.40;1.00
1377;DHT22;682;52.502;13.488;2023-03-08T07:14:28;1.40;1.00
1377;DHT22;682;52.502;13.488;2023-03-08T07:16:55;1.60;1.00
1377;DHT22;682;52.502;13.488;2023-03-08T07:19:22;1.60;1.00
1377;DHT22;682;52.502;13.488;2023-03-08T07:21:49;1.70;1.00
1377;DHT22;682;52.502;13.488;2023-03-08T07:24:16;1.80;1.00
1377;DHT22;682;52.502;13.488;2023-03-08T07:26:43;2.00;1.00
1377;DHT22;682;52.502;13.488;2023-03-08T07:29:10;2.10;1.00
1377;DHT22;682;52.502;13.488;2023-03-08T07:31:41;2.10;1.00
1377;DHT22;682;52.502;13.488;2023-03-08T07:34:07;2.30;1.00
1377;DHT22;682;52.502;13.488;2023-03-08T07:36:34;2.40;1.00
1377;DHT22;682;52.502;13.488;2023-03-08T07:39:02;2.50;1.00
1377;DHT22;682;52.502;13.488;2023-03-08T07:41:30;2.60;1.00
1377;DHT22;682;52.502;13.488;2023-03-08T07:43:57;2.60;1.00
1377;DHT22;682;52.502;13.488;2023-03-08T07:46:24;2.60;1.00
1377;DHT22;682;52.502;13.488;2023-03-08T07:48:54;2.70;1.00
1377;DHT22;682;52.502;13.488;2023-03-08T07:51:21;2.80;1.00
1377;DHT22;682;52.502;13.488;2023-03-08T07:53:48;2.80;1.00
1377;DHT22;682;52.502;13.488;2023-03-08T07:56:14;3.00;1.00
1377;DHT22;682;52.502;13.488;2023-03-08T07:58:41;3.10;1.00
1377;DHT22;682;52.502;13.488;2023-03-08T08:01:09;3.10;1.00
1377;DHT22;682;52.502;13.488;2023-03-08T08:03:36;3.30;1.00
1377;DHT22;682;52.502;13.488;2023-03-08T08:06:05;3.40;1.00
1377;DHT22;682;52.502;13.488;2023-03-08T08:08:32;3.40;1.00
1377;DHT22;682;52.502;13.488;2023-03-08T08:10:59;3.40;1.00
1377;DHT22;682;52.502;13.488;2023-03-08T08:13:26;3.50;1.00
1377;DHT22;682;52.502;13.488;2023-03-08T08:15:57;3.40;1.00
1377;DHT22;682;52.502;13.488;2023-03-08T08:18:24;3.40;1.00
1377;DHT22;682;52.502;13.488;2023-03-08T08:20:59;3.50;1.00
1377;DHT22;682;52.502;13.488;2023-03-08T08:23:32;3.50;1.00
1377;DHT22;682;52.502;13.488;2023-03-08T08:25:59;3.70;1.00
1377;DHT22;682;52.502;13.488;2023-03-08T08:28:26;3.90;1.00
1377;DHT22;682;52.502;13.488;2023-03-08T08:30:58;4.00;1.00
1377;DHT22;682;52.502;13.488;2023-03-08T08:33:26;4.20;1.00
1377;DHT22;682;52.502;13.488;2023-03-08T08:35:53;4.10;1.00
1377;DHT22;682;52.502;13.488;2023-03-08T08:38:20;4.30;1.00
1377;DHT22;682;52.502;13.488;2023-03-08T08:40:48;4.30;1.00
1377;DHT22;682;52.502;13.488;2023-03-08T08:43:15;4.40;1.00
1377;DHT22;682;52.502;13.488;2023-03-08T08:45:43;4.60;1.00
1377;DHT22;682;52.502;13.488;2023-03-08T08:48:10;4.80;1.00
1377;DHT22;682;52.502;13.488;2023-03-08T08:50:37;5.00;1.00
1377;DHT22;682;52.502;13.488;2023-03-08T08:53:05;5.10;1.00
1377;DHT22;682;52.502;13.488;2023-03-08T08:55:32;5.40;1.00
1377;DHT22;682;52.502;13.488;2023-03-08T08:58:01;5.50;1.00
1377;DHT22;682;52.502;13.488;2023-03-08T09:00:28;5.90;1.00
1377;DHT22;682;52.502;13.488;2023-03-08T09:02:55;6.60;1.00
1377;DHT22;682;52.502;13.488;2023-03-08T09:05:22;7.30;1.00
1377;DHT22;682;52.502;13.488;2023-03-08T09:07:52;7.80;1.00
1377;DHT22;682;52.502;13.488;2023-03-08T09:10:19;8.20;1.00
1377;DHT22;682;52.502;13.488;2023-03-08T09:12:46;8.60;1.00
1377;DHT22;682;52.502;13.488;2023-03-08T09:15:14;9.30;1.00
1377;DHT22;682;52.502;13.488;2023-03-08T09:17:42;9.50;1.00
1377;DHT22;682;52.502;13.488;2023-03-08T09:20:10;9.50;1.00
1377;DHT22;682;52.502;13.488;2023-03-08T09:22:37;9.30;1.00
1377;DHT22;682;52.502;13.488;2023-03-08T09:25:05;9.10;1.00
1377;DHT22;682;52.502;13.488;2023-03-08T09:27:32;9.00;1.00
1377;DHT22;682;52.502;13.488;2023-03-08T09:29:59;8.80;1.00
1377;DHT22;682;52.502;13.488;2023-03-08T09:32:28;8.80;1.00
1377;DHT22;682;52.502;13.488;2023-03-08T09:34:55;8.60;1.00
1377;DHT22;682;52.502;13.488;2023-03-08T09:37:23;8.50;1.00
1377;DHT22;682;52.502;13.488;2023-03-08T09:39:50;8.30;1.00
1377;DHT22;682;52.502;13.488;2023-03-08T09:42:19;7.90;1.00
1377;DHT22;682;52.502;13.488;2023-03-08T09:45:00;7.70;1.00
1377;DHT22;682;52.502;13.488;2023-03-08T09:47:37;7.50;1.00
1377;DHT22;682;52.502;13.488;2023-03-08T09:50:20;7.40;1.00
1377;DHT22;682;52.502;13.488;2023-03-08T09:52:50;7.50;1.00
1377;DHT22;682;52.502;13.488;2023-03-08T09:55:20;7.80;1.00
1377;DHT22;682;52.502;13.488;2023-03-08T09:57:59;7.90;1.00
1377;DHT22;682;52.502;13.488;2023-03-08T10:00:29;8.00;1.00
1377;DHT22;682;52.502;13.488;2023-03-08T10:03:26;8.30;1.00
1377;DHT22;682;52.502;13.488;2023-03-08T10:06:01;8.80;1.00
1377;DHT22;682;52.502;13.488;2023-03-08T10:08:34;9.00;1.00
1377;DHT22;682;52.502;13.488;2023-03-08T10:11:04;9.10;1.00
1377;DHT22;682;52.502;13.488;2023-03-08T10:13:33;9.20;1.00
1377;DHT22;682;52.502;13.488;2023-03-08T10:16:12;9.10;1.00
1377;DHT22;682;52.502;13.488;2023-03-08T10:18:46;9.30;1.00
1377;DHT22;682;52.502;13.488;2023-03-08T10:21:17;10.10;1.00
1377;DHT22;682;52.502;13.488;2023-03-08T10:24:05;10.70;1.00
1377;DHT22;682;52.502;13.488;2023-03-08T10:26:37;10.80;1.00
1377;DHT22;682;52.502;13.488;2023-03-08T10:29:06;10.50;1.00
1377;DHT22;682;52.502;13.488;2023-03-08T10:31:32;10.00;1.00
1377;DHT22;682;52.502;13.488;2023-03-08T10:34:11;9.60;1.00
1377;DHT22;682;52.502;13.488;2023-03-08T10:36:47;9.30;1.00
1377;DHT22;682;52.502;13.488;2023-03-08T10:39:14;8.80;1.00
1377;DHT22;682;52.502;13.488;2023-03-08T10:41:43;8.60;1.00
1377;DHT22;682;52.502;13.488;2023-03-08T10:44:13;8.70;1.00
1377;DHT22;682;52.502;13.488;2023-03-08T10:46:48;9.00;1.00
1377;DHT22;682;52.502;13.488;2023-03-08T10:49:18;9.10;1.00
1377;DHT22;682;52.502;13.488;2023-03-08T10:51:53;8.70;1.00
1377;DHT22;682;52.502;13.488;2023-03-08T10:54:20;8.20;1.00
1377;DHT22;682;52.502;13.488;2023-03-08T10:56:52;8.50;1.00
1377;DHT22;682;52.502;13.488;2023-03-08T10:59:22;8.70;1.00
1377;DHT22;682;52.502;13.488;2023-03-08T11:01:54;8.90;1.00
1377;DHT22;682;52.502;13.488;2023-03-08T11:04:26;9.70;1.00
1377;DHT22;682;52.502;13.488;2023-03-08T11:06:54;10.30;1.00
1377;DHT22;682;52.502;13.488;2023-03-08T11:09:24;11.10;1.00
1377;DHT22;682;52.502;13.488;2023-03-08T11:11:53;11.80;1.00
1377;DHT22;682;52.502;13.488;2023-03-08T11:14:21;12.10;1.00
1377;DHT22;682;52.502;13.488;2023-03-08T11:16:52;11.30;1.00
1377;DHT22;682;52.502;13.488;2023-03-08T11:19:49;10.40;1.00
1377;DHT22;682;52.502;13.488;2023-03-08T11:22:26;9.60;1.00
1377;DHT22;682;52.502;13.488;2023-03-08T11:25:07;9.20;1.00
1377;DHT22;682;52.502;13.488;2023-03-08T11:27:52;9.10;1.00
1377;DHT22;682;52.502;13.488;2023-03-08T11:30:30;9.00;1.00
1377;DHT22;682;52.502;13.488;2023-03-08T11:33:19;8.70;1.00
1377;DHT22;682;52.502;13.488;2023-03-08T11:35:56;8.40;1.00
1377;DHT22;682;52.502;13.488;2023-03-08T11:38:26;8.30;1.00
1377;DHT22;682;52.502;13.488;2023-03-08T11:40:58;8.50;1.00
1377;DHT22;682;52.502;13.488;2023-03-08T11:43:46;8.20;1.00
1377;DHT22;682;52.502;13.488;2023-03-08T11:46:20;8.20;1.00
1377;DHT22;682;52.502;13.488;2023-03-08T11:49:03;8.30;1.00
1377;DHT22;682;52.502;13.488;2023-03-08T11:51:43;8.20;1.00
1377;DHT22;682;52.502;13.488;2023-03-08T11:54:18;8.20;1.00
1377;DHT22;682;52.502;13.488;2023-03-08T11:56:50;8.00;1.00
1377;DHT22;682;52.502;13.488;2023-03-08T11:59:25;8.10;1.00
1377;DHT22;682;52.502;13.488;2023-03-08T12:01:59;8.10;1.00
1377;DHT22;682;52.502;13.488;2023-03-08T12:04:32;7.90;1.00
1377;DHT22;682;52.502;13.488;2023-03-08T12:07:06;7.70;1.00
1377;DHT22;682;52.502;13.488;2023-03-08T12:09:38;7.60;1.00
1377;DHT22;682;52.502;13.488;2023-03-08T12:12:12;7.60;1.00
1377;DHT22;682;52.502;13.488;2023-03-08T12:14:48;7.60;1.00
1377;DHT22;682;52.502;13.488;2023-03-08T12:17:19;7.60;1.00
1377;DHT22;682;52.502;13.488;2023-03-08T12:19:48;7.50;1.00
1377;DHT22;682;52.502;13.488;2023-03-08T12:22:29;7.20;1.00
1377;DHT22;682;52.502;13.488;2023-03-08T12:25:08;7.50;1.00
1377;DHT22;682;52.502;13.488;2023-03-08T12:27:42;8.10;1.00
1377;DHT22;682;52.502;13.488;2023-03-08T12:30:21;8.60;1.00
1377;DHT22;682;52.502;13.488;2023-03-08T12:32:50;8.60;1.00
1377;DHT22;682;52.502;13.488;2023-03-08T12:35:26;8.70;1.00
1377;DHT22;682;52.502;13.488;2023-03-08T12:38:00;8.60;1.00
1377;DHT22;682;52.502;13.488;2023-03-08T12:40:34;8.10;1.00
1377;DHT22;682;52.502;13.488;2023-03-08T12:43:07;7.80;1.00
1377;DHT22;682;52.502;13.488;2023-03-08T12:45:36;7.60;1.00
1377;DHT22;682;52.502;13.488;2023-03-08T12:48:24;7.40;1.00
1377;DHT22;682;52.502;13.488;2023-03-08T12:50:58;7.50;1.00
1377;DHT22;682;52.502;13.488;2023-03-08T12:53:31;7.40;1.00
1377;DHT22;682;52.502;13.488;2023-03-08T12:56:05;7.20;1.00
1377;DHT22;682;52.502;13.488;2023-03-08T12:58:35;6.90;1.00
1377;DHT22;682;52.502;13.488;2023-03-08T13:01:05;6.70;1.00
1377;DHT22;682;52.502;13.488;2023-03-08T13:03:38;6.60;1.00
1377;DHT22;682;52.502;13.488;2023-03-08T13:06:44;6.40;1.00
1377;DHT22;682;52.502;13.488;2023-03-08T13:09:19;6.40;1.00
1377;DHT22;682;52.502;13.488;2023-03-08T13:11:57;6.30;1.00
1377;DHT22;682;52.502;13.488;2023-03-08T13:14:27;6.30;1.00
1377;DHT22;682;52.502;13.488;2023-03-08T13:17:31;6.50;1.00
1377;DHT22;682;52.502;13.488;2023-03-08T13:20:01;6.60;1.00
1377;DHT22;682;52.502;13.488;2023-03-08T13:22:36;6.50;1.00
1377;DHT22;682;52.502;13.488;2023-03-08T13:25:15;6.50;1.00
1377;DHT22;682;52.502;13.488;2023-03-08T13:27:52;6.50;1.00
1377;DHT22;682;52.502;13.488;2023-03-08T13:30:24;6.30;1.00
1377;DHT22;682;52.502;13.488;2023-03-08T13:32:53;6.20;1.00
1377;DHT22;682;52.502;13.488;2023-03-08T13:35:22;6.20;1.00
1377;DHT22;682;52.502;13.488;2023-03-08T13:37:53;6.00;1.00
1377;DHT22;682;52.502;13.488;2023-03-08T13:40:23;5.80;1.00
1377;DHT22;682;52.502;13.488;2023-03-08T13:42:54;5.60;1.00
1377;DHT22;682;52.502;13.488;2023-03-08T13:45:22;5.30;1.00
1377;DHT22;682;52.502;13.488;2023-03-08T13:47:50;5.30;1.00
1377;DHT22;682;52.502;13.488;2023-03-08T13:50:20;5.40;1.00
1377;DHT22;682;52.502;13.488;2023-03-08T13:52:49;5.40;1.00
1377;DHT22;682;52.502;13.488;2023-03-08T13:55:19;5.50;1.00
1377;DHT22;682;52.502;13.488;2023-03-08T13:57:50;5.50;1.00
1377;DHT22;682;52.502;13.488;2023-03-08T14:00:26;5.20;1.00
1377;DHT22;682;52.502;13.488;2023-03-08T14:02:54;5.10;1.00
1377;DHT22;682;52.502;13.488;2023-03-08T14:05:24;5.00;1.00
1377;DHT22;682;52.502;13.488;2023-03-08T14:07:56;4.80;1.00
1377;DHT22;682;52.502;13.488;2023-03-08T14:10:27;4.60;1.00
1377;DHT22;682;52.502;13.488;2023-03-08T14:12:58;4.80;1.00
1377;DHT22;682;52.502;13.488;2023-03-08T14:15:26;4.70;1.00
1377;DHT22;682;52.502;13.488;2023-03-08T14:17:53;4.70;1.00
1377;DHT22;682;52.502;13.488;2023-03-08T14:20:24;4.80;1.00
1377;DHT22;682;52.502;13.488;2023-03-08T14:22:53;4.90;1.00
1377;DHT22;682;52.502;13.488;2023-03-08T14:25:23;4.80;1.00
1377;DHT22;682;52.502;13.488;2023-03-08T14:27:51;4.50;1.00
1377;DHT22;682;52.502;13.488;2023-03-08T14:30:23;4.30;1.00
1377;DHT22;682;52.502;13.488;2023-03-08T14:33:02;4.00;1.00
1377;DHT22;682;52.502;13.488;2023-03-08T14:35:33;3.70;1.00
1377;DHT22;682;52.502;13.488;2023-03-08T14:38:01;3.70;1.00
1377;DHT22;682;52.502;13.488;2023-03-08T14:40:31;3.70;1.00
1377;DHT22;682;52.502;13.488;2023-03-08T14:43:02;3.80;1.00
1377;DHT22;682;52.502;13.488;2023-03-08T14:45:34;3.90;1.00
1377;DHT22;682;52.502;13.488;2023-03-08T14:48:20;3.90;1.00
1377;DHT22;682;52.502;13.488;2023-03-08T14:50:54;3.90;1.00
1377;DHT22;682;52.502;13.488;2023-03-08T14:53:26;3.90;1.00
1377;DHT22;682;52.502;13.488;2023-03-08T14:55:55;3.90;1.00
1377;DHT22;682;52.502;13.488;2023-03-08T14:58:26;3.90;1.00
1377;DHT22;682;52.502;13.488;2023-03-08T15:00:57;3.80;1.00
1377;DHT22;682;52.502;13.488;2023-03-08T15:03:25;3.80;1.00
1377;DHT22;682;52.502;13.488;2023-03-08T15:05:53;3.70;1.00
1377;DHT22;682;52.502;13.488;2023-03-08T15:08:21;3.60;1.00
1377;DHT22;682;52.502;13.488;2023-03-08T15:10:48;3.50;1.00
1377;DHT22;682;52.502;13.488;2023-03-08T15:13:18;3.50;1.00
1377;DHT22;682;52.502;13.488;2023-03-08T15:15:49;3.40;1.00
1377;DHT22;682;52.502;13.488;2023-03-08T15:18:18;3.40;1.00
1377;DHT22;682;52.502;13.488;2023-03-08T15:20:47;3.40;1.00
1377;DHT22;682;52.502;13.488;2023-03-08T15:23:19;3.50;1.00
1377;DHT22;682;52.502;13.488;2023-03-08T15:28:19;3.40;1.00
1377;DHT22;682;52.502;13.488;2023-03-08T15:30:48;3.30;1.00
1377;DHT22;682;52.502;13.488;2023-03-08T15:33:17;3.30;1.00
1377;DHT22;682;52.502;13.488;2023-03-08T15:35:44;3.20;1.00
1377;DHT22;682;52.502;13.488;2023-03-08T15:38:12;3.20;1.00
1377;DHT22;682;52.502;13.488;2023-03-08T15:40:40;3.20;1.00
1377;DHT22;682;52.502;13.488;2023-03-08T15:43:08;3.20;1.00
